Time;durP1;ratioP1;P1;durP2;ratioP2;P2;SDS_P1;SDS_P2;PMS_P1;PMS_P2;Temp;Humidity;BMP_temperature;BMP_pressure;BME280_temperature;BME280_humidity;BME280_pressure;Samples;Min_cycle;Max_cycle;Signal;HPM_P1;HPM_P2
2023/03/08 00:02:25;;;;;;;15.60;7.40;;;6.40;94.70;;;;;;5032972;28;20033;-70
2023/03/08 00:04:54;;;;;;;12.05;6.50;;;6.40;95.00;;;;;;5034054;28;20390;-69
2023/03/08 00:07:20;;;;;;;16.52;7.30;;;6.30;95.20;;;;;;5032681;28;20029;-70
2023/03/08 00:09:45;;;;;;;11.85;6.50;;;6.30;95.40;;;;;;5034298;28;20031;-69
2023/03/08 00:12:11;;;;;;;12.50;6.67;;;6.20;95.70;;;;;;5023101;28;20479;-70
2023/03/08 00:14:37;;;;;;;15.25;6.93;;;6.10;96.00;;;;;;5014497;28;20537;-69
2023/03/08 00:17:02;;;;;;;12.47;6.60;;;6.00;96.10;;;;;;5013886;28;20038;-69
2023/03/08 00:19:28;;;;;;;15.23;6.60;;;5.90;96.30;;;;;;5014431;28;20493;-70
2023/03/08 00:21:54;;;;;;;13.43;7.63;;;5.90;96.50;;;;;;5012890;28;20076;-69
2023/03/08 00:24:19;;;;;;;13.03;7.13;;;5.90;96.40;;;;;;5013044;28;20498;-69
2023/03/08 00:26:45;;;;;;;16.70;9.27;;;5.90;96.50;;;;;;5012636;28;20033;-69
2023/03/08 00:29:10;;;;;;;13.70;7.10;;;5.90;96.50;;;;;;5012772;28;20034;-69
2023/03/08 00:31:36;;;;;;;11.37;6.70;;;5.80;96.50;;;;;;5012982;28;20045;-71
2023/03/08 00:34:02;;;;;;;12.85;6.75;;;5.80;96.50;;;;;;5014112;28;20133;-69
2023/03/08 00:36:28;;;;;;;34.33;14.90;;;5.70;96.80;;;;;;5014560;28;20033;-69
2023/03/08 00:38:55;;;;;;;13.30;6.70;;;5.70;96.50;;;;;;5015913;28;20026;-69
2023/03/08 00:41:21;;;;;;;15.00;7.43;;;5.70;96.40;;;;;;5023746;28;20492;-70
2023/03/08 00:43:47;;;;;;;13.13;6.72;;;5.70;96.50;;;;;;5037631;28;20029;-69
2023/03/08 00:46:13;;;;;;;16.80;6.97;;;5.70;96.60;;;;;;5036132;28;20026;-69
2023/03/08 00:48:38;;;;;;;15.68;7.00;;;5.70;96.50;;;;;;5034992;28;20025;-68
2023/03/08 00:51:04;;;;;;;16.20;7.07;;;5.60;96.70;;;;;;5033646;28;20029;-70
2023/03/08 00:53:30;;;;;;;14.03;7.10;;;5.60;96.60;;;;;;5034878;28;20393;-69
2023/03/08 00:55:57;;;;;;;13.50;7.13;;;5.70;96.70;;;;;;5034460;28;20037;-69
2023/03/08 00:58:24;;;;;;;17.00;7.57;;;5.60;96.70;;;;;;5043440;28;20021;-69
2023/03/08 01:00:50;;;;;;;12.93;6.68;;;5.60;96.80;;;;;;5045728;28;20425;-70
2023/03/08 01:03:17;;;;;;;13.73;7.20;;;5.50;97.00;;;;;;5039929;28;20021;-69
2023/03/08 01:05:46;;;;;;;13.60;6.75;;;5.50;97.10;;;;;;5037552;28;20026;-70
2023/03/08 01:08:13;;;;;;;16.50;7.65;;;5.50;97.00;;;;;;5037498;28;20017;-69
2023/03/08 01:10:39;;;;;;;13.48;7.10;;;5.50;97.00;;;;;;5037537;28;20026;-69
2023/03/08 01:13:06;;;;;;;13.93;7.38;;;5.50;97.00;;;;;;5019054;28;20113;-70
2023/03/08 01:15:36;;;;;;;14.07;7.40;;;5.50;97.00;;;;;;5017289;28;20371;-70
2023/03/08 01:18:03;;;;;;;16.80;7.63;;;5.40;96.90;;;;;;5016178;28;20026;-70
2023/03/08 01:20:28;;;;;;;13.90;7.93;;;5.40;97.00;;;;;;5018373;28;20030;-70
2023/03/08 01:22:54;;;;;;;14.27;7.73;;;5.40;97.10;;;;;;5017486;28;20037;-69
2023/03/08 01:25:20;;;;;;;16.50;8.07;;;5.40;97.10;;;;;;5016126;28;20029;-69
2023/03/08 01:27:45;;;;;;;12.77;7.00;;;5.40;97.20;;;;;;5015877;28;20037;-69
2023/03/08 01:30:11;;;;;;;12.77;6.73;;;5.30;97.30;;;;;;5017117;28;20127;-70
2023/03/08 01:32:37;;;;;;;16.15;7.35;;;5.40;97.10;;;;;;5017209;28;20038;-69
2023/03/08 01:35:04;;;;;;;15.23;6.53;;;5.40;97.00;;;;;;5016351;28;20121;-69
2023/03/08 01:37:30;;;;;;;14.77;7.10;;;5.50;97.00;;;;;;5015661;28;20474;-69
2023/03/08 01:39:56;;;;;;;15.38;7.47;;;5.40;97.00;;;;;;5015618;28;20121;-68
2023/03/08 01:42:22;;;;;;;17.83;7.80;;;5.40;97.10;;;;;;5029683;28;20053;-68
2023/03/08 01:44:57;;;;;;;14.95;7.32;;;5.30;97.20;;;;;;5036976;28;20029;-70
2023/03/08 01:47:31;;;;;;;15.75;8.10;;;5.30;97.30;;;;;;5036802;28;20030;-69
2023/03/08 01:50:09;;;;;;;18.15;8.27;;;5.30;97.20;;;;;;5035362;28;20083;-70
2023/03/08 01:52:42;;;;;;;13.35;7.22;;;5.20;97.50;;;;;;5036765;28;20025;-68
2023/03/08 01:55:11;;;;;;;13.98;7.03;;;5.20;97.50;;;;;;5035347;28;20494;-70
2023/03/08 01:57:44;;;;;;;17.33;7.85;;;5.30;97.30;;;;;;5034847;28;20041;-69
2023/03/08 02:00:21;;;;;;;16.15;8.07;;;5.20;97.30;;;;;;5036314;28;20029;-68
2023/03/08 02:02:51;;;;;;;13.80;7.43;;;5.10;97.50;;;;;;5035231;28;20025;-69
2023/03/08 02:05:18;;;;;;;14.82;7.30;;;5.20;97.50;;;;;;5036241;28;20501;-69
2023/03/08 02:07:43;;;;;;;17.10;8.20;;;5.30;97.40;;;;;;5034384;28;20437;-68
2023/03/08 02:10:11;;;;;;;13.53;7.07;;;5.30;97.40;;;;;;5036837;28;20029;-69
2023/03/08 02:12:37;;;;;;;15.15;7.97;;;5.30;97.40;;;;;;5036029;28;20021;-69
2023/03/08 02:15:05;;;;;;;16.42;8.05;;;5.20;97.60;;;;;;5036398;28;20028;-70
2023/03/08 02:17:33;;;;;;;14.27;7.82;;;5.20;98.00;;;;;;5035015;28;20034;-70
2023/03/08 02:20:10;;;;;;;15.65;7.35;;;5.10;97.90;;;;;;5036179;28;20056;-70
2023/03/08 02:22:37;;;;;;;;;;;5.30;97.60;;;;;;5036867;28;20053;-70
2023/03/08 02:25:15;;;;;;;12.05;7.18;;;5.30;97.60;;;;;;5035134;28;19908;-69
2023/03/08 02:27:41;;;;;;;12.70;7.57;;;5.30;97.60;;;;;;5035310;28;20401;-69
2023/03/08 02:30:07;;;;;;;16.42;7.82;;;5.40;97.50;;;;;;5036242;28;20109;-69
2023/03/08 02:32:33;;;;;;;15.32;7.70;;;5.30;97.70;;;;;;5036599;28;20547;-70
2023/03/08 02:34:59;;;;;;;15.40;7.97;;;5.40;97.50;;;;;;5036750;28;20033;-68
2023/03/08 02:37:24;;;;;;;14.13;7.43;;;5.50;97.60;;;;;;5051180;28;20083;-69
2023/03/08 02:39:50;;;;;;;13.13;7.70;;;5.50;97.50;;;;;;5035891;28;20430;-70
2023/03/08 02:42:15;;;;;;;15.47;8.10;;;5.60;97.30;;;;;;5023201;28;20041;-70
2023/03/08 02:44:41;;;;;;;13.53;7.80;;;5.60;97.30;;;;;;5016498;28;20026;-69
2023/03/08 02:47:07;;;;;;;15.77;7.97;;;5.60;97.30;;;;;;5016350;28;20026;-70
2023/03/08 02:49:32;;;;;;;15.02;7.10;;;5.60;97.20;;;;;;5016930;28;20026;-70
2023/03/08 02:51:58;;;;;;;13.63;6.80;;;5.60;97.20;;;;;;5017034;28;20030;-69
2023/03/08 02:54:23;;;;;;;13.07;7.17;;;5.70;97.20;;;;;;5017617;28;20058;-69
2023/03/08 02:56:49;;;;;;;14.00;7.40;;;5.60;97.00;;;;;;5035646;22;20045;-68
2023/03/08 02:59:14;;;;;;;13.70;7.13;;;5.60;97.10;;;;;;5014944;28;20041;-65
2023/03/08 03:01:40;;;;;;;15.93;7.00;;;5.60;97.10;;;;;;5014949;28;20026;-66
2023/03/08 03:04:05;;;;;;;14.63;7.27;;;5.70;96.90;;;;;;5013452;28;20029;-65
2023/03/08 03:06:32;;;;;;;18.07;7.30;;;5.50;96.90;;;;;;5014610;28;20032;-66
2023/03/08 03:08:57;;;;;;;13.07;7.53;;;5.60;97.00;;;;;;5015013;28;20050;-66
2023/03/08 03:11:23;;;;;;;14.83;7.57;;;5.50;96.90;;;;;;5014699;28;20049;-66
2023/03/08 03:13:55;;;;;;;15.63;7.63;;;5.50;97.00;;;;;;5014400;28;20052;-66
2023/03/08 03:16:20;;;;;;;17.25;8.15;;;5.40;97.20;;;;;;5013297;28;20029;-66
2023/03/08 03:18:46;;;;;;;14.90;7.63;;;5.30;97.30;;;;;;5014468;28;20022;-66
2023/03/08 03:21:13;;;;;;;12.23;6.97;;;5.30;97.30;;;;;;5013897;28;20386;-66
2023/03/08 03:23:39;;;;;;;16.40;7.72;;;5.30;97.50;;;;;;5013695;28;20033;-66
2023/03/08 03:26:11;;;;;;;14.23;7.10;;;5.30;97.40;;;;;;5015250;28;20046;-67
2023/03/08 03:28:36;;;;;;;13.88;7.35;;;5.20;97.60;;;;;;5028109;28;20509;-67
2023/03/08 03:31:07;;;;;;;15.93;8.40;;;5.20;97.50;;;;;;5034058;28;20025;-67
2023/03/08 03:33:33;;;;;;;13.38;7.43;;;5.30;97.60;;;;;;5034483;28;20049;-67
2023/03/08 03:35:58;;;;;;;13.33;7.37;;;5.30;97.60;;;;;;5039590;28;20034;-67
2023/03/08 03:38:24;;;;;;;16.80;8.17;;;5.30;97.60;;;;;;5037211;28;20040;-67
2023/03/08 03:40:49;;;;;;;15.83;7.53;;;5.30;97.60;;;;;;5036624;28;20025;-66
2023/03/08 03:43:15;;;;;;;15.23;7.43;;;5.30;97.70;;;;;;5036240;28;20044;-66
2023/03/08 03:45:40;;;;;;;12.70;7.40;;;5.30;97.70;;;;;;5035381;28;20021;-66
2023/03/08 03:48:06;;;;;;;17.23;8.00;;;5.40;97.70;;;;;;5035396;28;20022;-66
2023/03/08 03:50:31;;;;;;;15.40;7.70;;;5.30;97.60;;;;;;5035391;28;20068;-67
2023/03/08 03:52:57;;;;;;;14.97;7.07;;;5.40;97.80;;;;;;5034669;28;20148;-66
2023/03/08 03:55:22;;;;;;;13.63;7.70;;;5.50;97.70;;;;;;5034626;28;20079;-65
2023/03/08 03:57:49;;;;;;;14.00;7.27;;;5.60;97.60;;;;;;5025989;28;20399;-65
2023/03/08 04:00:15;;;;;;;;;;;5.40;97.70;;;;;;5015588;28;20022;-64
2023/03/08 04:02:41;;;;;;;15.60;7.93;;;5.30;97.90;;;;;;5019364;28;20370;-65
2023/03/08 04:05:06;;;;;;;12.63;7.50;;;5.40;97.90;;;;;;5021836;28;20089;-65
2023/03/08 04:07:32;;;;;;;19.08;7.57;;;5.50;97.80;;;;;;5018994;28;20422;-66
2023/03/08 04:09:58;;;;;;;15.95;7.95;;;5.50;97.80;;;;;;5015865;28;20029;-66
2023/03/08 04:12:24;;;;;;;15.15;7.65;;;5.40;97.90;;;;;;5014094;28;20570;-66
2023/03/08 04:14:49;;;;;;;16.30;8.23;;;5.40;98.00;;;;;;5014537;28;20026;-67
2023/03/08 04:17:15;;;;;;;13.63;7.37;;;5.40;98.10;;;;;;5012729;28;20050;-66
2023/03/08 04:19:40;;;;;;;13.27;7.50;;;5.50;97.80;;;;;;5014446;28;20076;-65
2023/03/08 04:22:06;;;;;;;14.43;7.53;;;5.60;97.70;;;;;;5015231;28;20048;-65
2023/03/08 04:24:31;;;;;;;15.67;7.93;;;5.50;97.70;;;;;;5013272;28;20025;-65
2023/03/08 04:26:57;;;;;;;14.83;7.20;;;5.50;97.60;;;;;;5014099;28;20053;-65
2023/03/08 04:29:22;;;;;;;13.80;7.50;;;5.40;97.80;;;;;;5031879;28;20037;-65
2023/03/08 04:31:48;;;;;;;12.33;7.33;;;5.40;97.80;;;;;;5032984;28;20034;-66
2023/03/08 04:34:13;;;;;;;14.63;7.23;;;5.40;97.90;;;;;;5033976;28;20021;-65
2023/03/08 04:36:39;;;;;;;17.93;8.13;;;5.50;97.90;;;;;;5032581;28;20022;-65
2023/03/08 04:39:04;;;;;;;17.53;7.70;;;5.60;98.00;;;;;;5033403;28;20028;-66
2023/03/08 04:41:30;;;;;;;16.27;8.57;;;5.60;98.00;;;;;;5033934;28;20578;-65
2023/03/08 04:43:56;;;;;;;12.47;7.03;;;5.50;97.90;;;;;;5033351;28;20053;-65
2023/03/08 04:46:25;;;;;;;15.02;7.38;;;5.50;98.10;;;;;;5032428;28;20017;-66
2023/03/08 04:48:54;;;;;;;15.07;7.75;;;5.50;98.10;;;;;;5033337;28;20021;-65
2023/03/08 04:51:22;;;;;;;14.45;7.53;;;5.50;98.20;;;;;;5032969;28;20528;-65
2023/03/08 04:53:48;;;;;;;15.65;7.53;;;5.60;98.10;;;;;;5032918;28;20034;-66
2023/03/08 04:56:14;;;;;;;16.13;7.77;;;5.60;98.10;;;;;;5032792;28;20030;-66
2023/03/08 04:58:40;;;;;;;;;;;5.60;98.10;;;;;;5031789;28;20028;-66
2023/03/08 05:01:12;;;;;;;15.80;8.20;;;5.60;98.20;;;;;;5032968;28;20262;-66
2023/03/08 05:03:37;;;;;;;13.88;6.57;;;5.70;98.10;;;;;;5032111;28;20021;-66
2023/03/08 05:06:03;;;;;;;16.43;7.70;;;5.50;98.30;;;;;;5033533;28;20393;-66
2023/03/08 05:08:29;;;;;;;14.20;8.00;;;5.50;98.50;;;;;;5033487;28;20382;-66
2023/03/08 05:10:57;;;;;;;14.90;7.80;;;5.40;98.60;;;;;;5033722;28;20037;-65
2023/03/08 05:13:23;;;;;;;16.67;8.23;;;5.40;98.70;;;;;;5033048;28;20100;-66
2023/03/08 05:15:49;;;;;;;17.15;8.07;;;5.40;98.80;;;;;;5031482;28;20036;-66
2023/03/08 05:18:14;;;;;;;20.27;8.30;;;5.40;98.90;;;;;;5031470;28;20033;-67
2023/03/08 05:20:40;;;;;;;17.03;8.67;;;5.50;98.60;;;;;;5033061;28;20041;-66
2023/03/08 05:23:05;;;;;;;16.53;8.13;;;5.50;98.80;;;;;;5031630;28;20026;-66
2023/03/08 05:25:32;;;;;;;17.00;8.83;;;5.50;98.90;;;;;;5042817;28;20022;-66
2023/03/08 05:27:58;;;;;;;17.50;8.25;;;5.50;98.70;;;;;;5042988;28;20486;-65
2023/03/08 05:30:23;;;;;;;15.70;8.23;;;5.70;98.70;;;;;;5033045;28;20036;-65
2023/03/08 05:32:49;;;;;;;16.27;8.60;;;5.70;98.50;;;;;;5033206;28;20034;-68
2023/03/08 05:35:15;;;;;;;13.97;7.40;;;5.70;98.50;;;;;;5033105;28;20040;-68
2023/03/08 05:37:40;;;;;;;14.30;8.13;;;5.60;98.70;;;;;;5032555;28;20029;-65
2023/03/08 05:40:06;;;;;;;15.90;7.90;;;5.70;98.70;;;;;;5032894;28;20044;-68
2023/03/08 05:42:32;;;;;;;18.27;9.07;;;5.60;98.80;;;;;;5032817;28;20068;-67
2023/03/08 05:44:58;;;;;;;15.43;9.00;;;5.70;98.70;;;;;;5035643;28;20451;-67
2023/03/08 05:47:24;;;;;;;15.98;8.05;;;5.50;99.00;;;;;;5035096;28;20037;-67
2023/03/08 05:49:50;;;;;;;17.60;8.53;;;5.50;99.10;;;;;;5038368;28;20037;-65
2023/03/08 05:52:16;;;;;;;16.20;7.80;;;5.50;98.90;;;;;;5030034;28;20419;-65
2023/03/08 05:54:42;;;;;;;17.13;8.43;;;5.60;98.90;;;;;;5033395;28;20072;-65
2023/03/08 05:57:08;;;;;;;19.75;8.57;;;5.60;98.80;;;;;;5021347;28;20046;-66
2023/03/08 05:59:33;;;;;;;17.80;8.30;;;5.60;99.00;;;;;;5039795;28;20037;-66
2023/03/08 06:01:59;;;;;;;18.47;8.60;;;5.50;99.00;;;;;;5034113;28;20471;-65
2023/03/08 06:04:25;;;;;;;16.98;8.93;;;5.50;99.20;;;;;;5033313;28;20104;-67
2023/03/08 06:06:50;;;;;;;14.97;7.63;;;5.40;99.30;;;;;;5034443;28;20030;-67
2023/03/08 06:09:16;;;;;;;16.93;9.67;;;5.40;99.40;;;;;;5036245;28;20132;-67
2023/03/08 06:11:41;;;;;;;18.50;8.50;;;5.40;99.60;;;;;;5049439;28;20051;-67
2023/03/08 06:14:07;;;;;;;15.30;7.87;;;5.60;99.30;;;;;;5055687;28;20037;-66
2023/03/08 06:16:32;;;;;;;16.13;8.30;;;5.50;99.40;;;;;;5054291;28;20032;-65
2023/03/08 06:19:00;;;;;;;19.80;9.17;;;5.50;99.50;;;;;;5056430;28;20104;-64
2023/03/08 06:21:26;;;;;;;15.00;8.20;;;5.60;99.40;;;;;;5054903;28;20060;-64
2023/03/08 06:23:52;;;;;;;22.90;8.13;;;5.50;99.50;;;;;;5050314;28;20470;-66
2023/03/08 06:26:18;;;;;;;18.43;8.83;;;5.50;99.60;;;;;;5038379;28;20032;-68
2023/03/08 06:28:43;;;;;;;16.45;8.20;;;5.50;99.80;;;;;;5034758;28;20018;-68
2023/03/08 06:31:14;;;;;;;18.87;9.50;;;5.50;99.70;;;;;;5034769;28;20029;-68
2023/03/08 06:33:41;;;;;;;16.67;9.20;;;5.50;99.90;;;;;;5035163;28;20041;-67
2023/03/08 06:36:10;;;;;;;18.70;8.95;;;5.40;99.90;;;;;;5035001;28;20482;-67
2023/03/08 06:38:38;;;;;;;21.02;10.40;;;5.50;99.90;;;;;;5035432;28;20030;-67
2023/03/08 06:41:04;;;;;;;19.90;9.82;;;5.50;99.90;;;;;;5033897;28;20175;-69
2023/03/08 06:43:30;;;;;;;16.70;8.77;;;5.50;99.90;;;;;;5033263;28;20179;-69
2023/03/08 06:45:56;;;;;;;18.85;9.48;;;5.40;99.90;;;;;;5036184;28;20045;-69
2023/03/08 06:48:22;;;;;;;20.70;10.63;;;5.40;99.90;;;;;;5033426;28;20112;-69
2023/03/08 06:50:48;;;;;;;20.33;10.00;;;5.40;99.90;;;;;;5034796;28;20033;-68
2023/03/08 06:53:14;;;;;;;18.83;9.90;;;5.30;99.90;;;;;;5035231;28;20125;-67
2023/03/08 06:55:40;;;;;;;20.60;10.40;;;5.20;99.90;;;;;;5035540;28;20033;-69
2023/03/08 06:58:07;;;;;;;21.95;10.00;;;5.20;99.90;;;;;;5035517;28;20037;-69
2023/03/08 07:00:32;;;;;;;;;;;5.10;99.90;;;;;;5039033;28;20108;-69
2023/03/08 07:02:58;;;;;;;18.50;9.35;;;5.00;99.90;;;;;;5036934;28;19905;-68
2023/03/08 07:05:24;;;;;;;20.50;10.60;;;5.00;99.90;;;;;;5035994;28;20091;-68
2023/03/08 07:07:49;;;;;;;22.50;10.80;;;4.90;99.90;;;;;;5035540;28;20029;-69
2023/03/08 07:10:18;;;;;;;21.60;10.67;;;4.80;99.90;;;;;;5034813;28;20030;-69
2023/03/08 07:12:47;;;;;;;22.80;10.05;;;4.80;99.90;;;;;;5034299;28;20340;-68
2023/03/08 07:15:14;;;;;;;20.70;10.65;;;4.70;99.90;;;;;;5034857;28;20029;-70
2023/03/08 07:17:41;;;;;;;19.55;10.00;;;4.70;99.90;;;;;;5033558;28;20049;-69
2023/03/08 07:20:07;;;;;;;;;;;4.70;99.90;;;;;;5033550;28;20111;-68
2023/03/08 07:22:33;;;;;;;24.38;10.90;;;4.60;99.90;;;;;;5034854;28;19948;-67
2023/03/08 07:24:58;;;;;;;21.47;10.97;;;4.60;99.90;;;;;;5035298;28;20155;-68
2023/03/08 07:27:24;;;;;;;20.83;10.33;;;4.60;99.90;;;;;;5033912;28;20478;-70
2023/03/08 07:29:49;;;;;;;21.93;11.93;;;4.60;99.90;;;;;;5032515;28;20050;-68
2023/03/08 07:32:15;;;;;;;19.37;10.90;;;4.50;99.90;;;;;;5034422;28;20268;-69
2023/03/08 07:34:41;;;;;;;20.23;10.57;;;4.50;99.90;;;;;;5033807;28;20026;-69
2023/03/08 07:37:14;;;;;;;20.83;9.83;;;4.60;99.90;;;;;;5034109;28;20037;-68
2023/03/08 07:39:39;;;;;;;24.13;10.88;;;4.60;99.90;;;;;;5033791;28;20021;-69
2023/03/08 07:42:05;;;;;;;21.10;9.77;;;4.60;99.90;;;;;;5034283;28;20081;-69
2023/03/08 07:44:31;;;;;;;22.25;10.90;;;4.60;99.90;;;;;;5033662;28;20030;-69
2023/03/08 07:46:56;;;;;;;24.50;10.50;;;4.50;99.90;;;;;;5033851;28;20028;-68
2023/03/08 07:49:22;;;;;;;17.73;10.37;;;4.40;99.90;;;;;;5034181;28;20037;-69
2023/03/08 07:51:49;;;;;;;22.03;11.50;;;4.30;99.90;;;;;;5033762;28;20030;-69
2023/03/08 07:54:14;;;;;;;23.38;11.40;;;4.20;99.90;;;;;;5032615;28;20363;-70
2023/03/08 07:56:40;;;;;;;20.33;10.47;;;4.30;99.90;;;;;;5033700;28;20040;-68
2023/03/08 07:59:05;;;;;;;17.97;9.97;;;4.30;99.90;;;;;;5019387;28;20029;-69
2023/03/08 08:01:31;;;;;;;26.40;10.93;;;4.20;99.90;;;;;;5021226;28;20030;-68
2023/03/08 08:03:58;;;;;;;19.00;10.05;;;4.20;99.90;;;;;;5017685;28;20025;-69
2023/03/08 08:06:25;;;;;;;19.15;9.93;;;4.10;99.90;;;;;;5013559;28;20041;-69
2023/03/08 08:08:50;;;;;;;24.75;10.85;;;4.10;99.90;;;;;;5013871;28;20545;-69
2023/03/08 08:11:18;;;;;;;22.07;10.10;;;4.00;99.90;;;;;;5014126;28;20037;-69
2023/03/08 08:13:45;;;;;;;22.17;10.73;;;4.00;99.90;;;;;;5013475;28;20060;-70
2023/03/08 08:16:12;;;;;;;24.17;11.90;;;3.90;99.90;;;;;;5013462;28;20029;-69
2023/03/08 08:18:38;;;;;;;27.67;12.00;;;3.90;99.90;;;;;;5013668;28;20034;-67
2023/03/08 08:21:09;;;;;;;21.60;10.50;;;4.00;99.90;;;;;;5014801;28;20117;-69
2023/03/08 08:23:36;;;;;;;24.02;11.10;;;3.80;99.90;;;;;;5015109;28;20029;-68
2023/03/08 08:26:13;;;;;;;19.08;9.85;;;3.80;99.90;;;;;;5013634;28;20379;-69
2023/03/08 08:28:40;;;;;;;22.30;10.15;;;3.90;99.90;;;;;;5013517;28;20034;-71
2023/03/08 08:31:09;;;;;;;17.90;9.45;;;3.80;99.90;;;;;;5013738;28;20030;-70
2023/03/08 08:33:35;;;;;;;20.77;9.95;;;3.90;99.90;;;;;;5013713;28;20430;-70
2023/03/08 08:36:08;;;;;;;19.60;9.25;;;4.00;99.90;;;;;;5012730;28;20382;-70
2023/03/08 08:38:34;;;;;;;18.80;9.55;;;4.00;99.90;;;;;;5012941;28;20375;-70
2023/03/08 08:41:04;;;;;;;16.65;8.93;;;4.00;99.90;;;;;;5013557;28;20405;-69
2023/03/08 08:43:30;;;;;;;18.15;9.23;;;4.10;99.90;;;;;;5013477;28;20529;-69
2023/03/08 08:45:57;;;;;;;17.33;9.05;;;4.10;99.90;;;;;;5014838;28;20018;-71
2023/03/08 08:48:24;;;;;;;17.45;9.25;;;4.00;99.90;;;;;;5015309;28;20088;-70
2023/03/08 08:50:50;;;;;;;17.52;9.43;;;4.00;99.90;;;;;;5013653;28;20440;-69
2023/03/08 08:53:16;;;;;;;16.00;9.00;;;4.00;99.90;;;;;;5013441;28;20038;-69
2023/03/08 08:55:42;;;;;;;17.15;8.88;;;3.90;99.90;;;;;;5015545;28;20018;-68
2023/03/08 08:58:08;;;;;;;22.53;9.53;;;3.80;99.90;;;;;;5042025;23;20529;-66
2023/03/08 09:00:34;;;;;;;18.17;8.70;;;3.80;99.90;;;;;;5011883;28;20022;-66
2023/03/08 09:03:01;;;;;;;21.67;9.38;;;3.80;99.90;;;;;;5027780;28;20088;-65
2023/03/08 09:05:28;;;;;;;17.33;9.07;;;3.70;99.90;;;;;;5032642;28;20029;-66
2023/03/08 09:07:58;;;;;;;21.02;10.52;;;3.70;99.90;;;;;;5031467;28;20030;-67
2023/03/08 09:10:31;;;;;;;19.52;10.60;;;3.70;99.90;;;;;;5032538;28;20052;-67
2023/03/08 09:12:57;;;;;;;21.15;10.52;;;3.70;99.90;;;;;;5031859;28;20537;-67
2023/03/08 09:15:23;;;;;;;20.23;10.25;;;3.70;99.90;;;;;;5033157;28;20397;-67
2023/03/08 09:17:49;;;;;;;19.40;9.70;;;3.80;99.90;;;;;;5033207;28;20029;-66
2023/03/08 09:20:16;;;;;;;19.05;9.35;;;3.80;99.90;;;;;;5035548;28;20295;-66
2023/03/08 09:22:42;;;;;;;19.73;10.07;;;3.80;99.90;;;;;;5035163;28;20030;-67
2023/03/08 09:25:09;;;;;;;17.23;9.77;;;3.90;99.90;;;;;;5036289;28;20030;-66
2023/03/08 09:27:36;;;;;;;20.23;10.05;;;3.90;99.90;;;;;;5035681;28;20030;-66
2023/03/08 09:30:03;;;;;;;21.00;11.32;;;3.90;99.90;;;;;;5036022;28;20056;-67
2023/03/08 09:32:31;;;;;;;18.95;9.57;;;4.00;99.90;;;;;;5036679;28;20026;-66
2023/03/08 09:34:57;;;;;;;23.25;10.73;;;4.10;99.90;;;;;;5035936;28;20522;-66
2023/03/08 09:37:22;;;;;;;23.73;11.25;;;4.20;99.90;;;;;;5036070;28;20112;-67
2023/03/08 09:39:50;;;;;;;23.07;10.73;;;4.30;99.90;;;;;;5051266;28;20038;-65
2023/03/08 09:42:26;;;;;;;19.10;10.18;;;4.40;99.90;;;;;;5035831;28;20113;-66
2023/03/08 09:45:06;;;;;;;20.45;10.13;;;4.50;99.90;;;;;;5034622;28;20021;-66
2023/03/08 09:47:40;;;;;;;21.10;10.52;;;4.60;99.90;;;;;;5036424;28;20446;-65
2023/03/08 09:50:11;;;;;;;24.20;10.35;;;4.70;99.90;;;;;;5036013;28;20151;-66
2023/03/08 09:52:42;;;;;;;20.60;10.70;;;4.80;99.90;;;;;;5036129;28;20028;-68
2023/03/08 09:55:28;;;;;;;19.65;10.32;;;4.80;99.90;;;;;;5035654;28;20025;-64
2023/03/08 09:57:56;;;;;;;19.15;10.20;;;5.00;99.90;;;;;;5035517;28;20127;-68
2023/03/08 10:00:34;;;;;;;19.45;9.80;;;4.90;99.90;;;;;;5035574;28;20069;-66
2023/03/08 10:03:30;;;;;;;21.90;11.68;;;4.90;99.90;;;;;;5035703;28;20094;-69
2023/03/08 10:06:09;;;;;;;18.27;10.38;;;4.90;99.90;;;;;;5051275;28;20026;-64
2023/03/08 10:08:44;;;;;;;19.65;10.93;;;5.10;99.90;;;;;;5035384;28;20026;-65
2023/03/08 10:11:19;;;;;;;21.33;10.45;;;5.20;99.90;;;;;;5035518;28;20104;-65
2023/03/08 10:13:49;;;;;;;19.45;10.45;;;5.10;99.90;;;;;;5035257;28;20029;-64
2023/03/08 10:16:23;;;;;;;23.35;10.68;;;5.00;99.90;;;;;;5035213;28;20021;-65
2023/03/08 10:18:59;;;;;;;17.70;10.52;;;5.00;99.90;;;;;;5035190;28;20398;-67
2023/03/08 10:21:26;;;;;;;22.80;11.32;;;5.10;99.90;;;;;;5035521;28;20108;-67
2023/03/08 10:24:00;;;;;;;20.35;10.88;;;5.10;99.90;;;;;;5035143;28;20028;-66
2023/03/08 10:26:27;;;;;;;23.52;10.80;;;5.20;99.90;;;;;;5035307;28;20040;-65
2023/03/08 10:28:53;;;;;;;18.63;10.73;;;5.20;99.90;;;;;;5034242;28;20056;-65
2023/03/08 10:31:22;;;;;;;21.63;11.10;;;5.30;99.90;;;;;;5035093;28;20038;-71
2023/03/08 10:33:52;;;;;;;25.27;11.55;;;5.30;99.90;;;;;;5035020;28;20397;-66
2023/03/08 10:36:21;;;;;;;19.90;10.82;;;5.40;99.90;;;;;;5050253;28;20118;-66
2023/03/08 10:39:20;;;;;;;19.77;10.50;;;5.60;99.90;;;;;;5035061;28;20112;-66
2023/03/08 10:41:50;;;;;;;;;;;5.60;99.90;;;;;;4993293;28;20525;-67
2023/03/08 10:44:40;;;;;;;19.70;10.23;;;5.70;99.90;;;;;;4994599;28;20278;-68
2023/03/08 10:47:18;;;;;;;19.20;10.40;;;5.70;99.90;;;;;;4995202;28;20027;-67
2023/03/08 10:49:46;;;;;;;22.23;10.38;;;5.80;99.90;;;;;;4989363;28;20081;-65
2023/03/08 10:52:24;;;;;;;22.75;11.30;;;5.80;99.90;;;;;;4992560;28;20038;-66
2023/03/08 10:55:19;;;;;;;24.45;11.38;;;5.80;99.90;;;;;;4977704;28;20105;-66
2023/03/08 10:57:56;;;;;;;19.30;11.07;;;5.90;99.90;;;;;;4915833;29;20056;-66
2023/03/08 11:00:30;;;;;;;20.35;11.15;;;5.90;99.90;;;;;;4932313;29;20031;-66
2023/03/08 11:03:17;;;;;;;17.58;10.52;;;5.90;99.90;;;;;;4901794;29;20035;-66
2023/03/08 11:06:03;;;;;;;21.58;10.43;;;6.00;99.90;;;;;;4930134;29;20111;-66
2023/03/08 11:08:33;;;;;;;21.05;10.77;;;6.10;99.90;;;;;;4933607;29;20413;-66
2023/03/08 11:11:11;;;;;;;25.02;11.32;;;6.10;99.90;;;;;;4936176;29;20039;-66
2023/03/08 11:13:41;;;;;;;22.50;11.70;;;6.20;99.90;;;;;;4928964;29;20388;-67
2023/03/08 11:16:19;;;;;;;23.27;11.27;;;6.30;99.90;;;;;;4935287;29;20092;-65
2023/03/08 11:18:54;;;;;;;20.20;10.85;;;6.50;99.90;;;;;;4951576;29;20078;-67
2023/03/08 11:21:37;;;;;;;22.63;10.73;;;6.70;99.90;;;;;;4953184;29;20062;-67
2023/03/08 11:24:40;;;;;;;23.13;10.30;;;6.80;99.90;;;;;;4937933;29;20551;-67
2023/03/08 11:27:30;;;;;;;20.67;10.02;;;6.80;99.90;;;;;;4951579;29;20143;-67
2023/03/08 11:30:14;;;;;;;13.15;6.65;;;6.80;99.90;;;;;;4923769;29;20396;-70
2023/03/08 11:33:13;;;;;;;8.98;4.78;;;7.00;99.90;;;;;;4921457;29;20523;-67
2023/03/08 11:36:04;;;;;;;7.70;3.45;;;7.30;99.90;;;;;;5021841;28;20087;-69
2023/03/08 11:38:31;;;;;;;5.00;3.00;;;7.60;99.90;;;;;;5027497;28;20378;-69
2023/03/08 11:41:25;;;;;;;5.25;2.80;;;7.90;99.90;;;;;;5022578;28;20030;-68
2023/03/08 11:44:15;;;;;;;7.30;2.90;;;8.20;99.90;;;;;;5029681;28;20072;-69
2023/03/08 11:46:49;;;;;;;5.85;2.42;;;8.40;99.90;;;;;;5014066;28;20076;-70
2023/03/08 11:49:40;;;;;;;4.50;2.47;;;8.60;99.90;;;;;;5014071;28;20018;-69
2023/03/08 11:52:25;;;;;;;4.70;2.13;;;8.80;99.90;;;;;;5014200;28;20021;-69
2023/03/08 11:55:32;;;;;;;4.88;2.05;;;9.00;99.90;;;;;;5014266;28;20121;-70
2023/03/08 11:58:21;;;;;;;4.03;2.40;;;9.10;99.90;;;;;;4986993;28;20144;-69
2023/03/08 12:00:51;;;;;;;2.92;2.20;;;9.30;99.90;;;;;;5003213;28;20069;-70
2023/03/08 12:03:24;;;;;;;4.30;2.38;;;9.40;99.90;;;;;;5013471;28;20395;-69
2023/03/08 12:05:56;;;;;;;3.00;1.63;;;9.50;99.90;;;;;;5012368;28;20045;-69
2023/03/08 12:08:27;;;;;;;4.25;1.75;;;9.60;99.90;;;;;;5013850;28;20025;-69
2023/03/08 12:11:03;;;;;;;4.63;2.15;;;9.70;99.90;;;;;;5015419;28;20116;-69
2023/03/08 12:13:38;;;;;;;4.18;2.05;;;9.80;99.90;;;;;;5032914;28;20032;-69
2023/03/08 12:16:18;;;;;;;2.42;1.80;;;9.90;99.90;;;;;;5044856;28;20030;-68
2023/03/08 12:18:54;;;;;;;3.42;1.70;;;10.00;99.90;;;;;;5041840;28;20025;-69
2023/03/08 12:21:37;;;;;;;2.67;1.88;;;10.00;99.90;;;;;;5020359;28;20053;-69
2023/03/08 12:24:21;;;;;;;2.63;1.63;;;10.10;99.90;;;;;;5027330;28;20033;-68
2023/03/08 12:27:04;;;;;;;3.88;2.17;;;10.20;99.90;;;;;;5021856;28;20180;-68
2023/03/08 12:29:44;;;;;;;4.20;1.92;;;10.20;99.90;;;;;;5029661;28;20034;-67
2023/03/08 12:32:12;;;;;;;2.60;2.13;;;10.30;99.90;;;;;;5014321;28;20066;-68
2023/03/08 12:34:40;;;;;;;3.22;1.45;;;10.40;99.90;;;;;;5012659;28;20026;-69
2023/03/08 12:37:27;;;;;;;3.47;1.92;;;10.50;99.90;;;;;;5013531;28;20479;-69
2023/03/08 12:40:01;;;;;;;3.10;1.58;;;10.50;99.90;;;;;;5015013;28;20100;-69
2023/03/08 12:42:40;;;;;;;2.38;1.60;;;10.50;99.90;;;;;;5013818;28;20026;-72
2023/03/08 12:45:23;;;;;;;2.80;1.60;;;10.60;99.90;;;;;;5013186;28;20053;-71
2023/03/08 12:48:04;;;;;;;2.03;1.30;;;10.70;99.90;;;;;;5013625;28;20066;-67
2023/03/08 12:50:43;;;;;;;1.75;1.23;;;10.80;99.90;;;;;;5028571;28;20422;-68
2023/03/08 12:53:33;;;;;;;2.25;1.40;;;10.80;99.90;;;;;;5029927;28;20091;-68
2023/03/08 12:56:05;;;;;;;2.72;1.40;;;10.90;99.90;;;;;;5017285;28;20034;-68
2023/03/08 12:58:33;;;;;;;2.22;1.45;;;11.10;99.90;;;;;;5016840;28;20362;-66